createdAt,value
2019-05-18T00:01:15.440Z,3.80
2019-05-18T00:04:31.539Z,3.90
2019-05-18T00:11:11.474Z,3.83
2019-05-18T00:17:25.187Z,3.73
2019-05-18T00:24:13.869Z,3.70
2019-05-18T00:27:29.448Z,3.77
2019-05-18T00:30:45.459Z,4.13
2019-05-18T00:34:00.849Z,4.13
2019-05-18T00:37:16.633Z,3.63
2019-05-18T00:40:32.027Z,3.80
2019-05-18T00:43:49.570Z,4.17
2019-05-18T00:47:06.749Z,3.90
2019-05-18T00:50:22.276Z,3.87
2019-05-18T00:53:36.008Z,3.57
2019-05-18T00:56:51.748Z,3.93
2019-05-18T01:00:07.711Z,3.97
2019-05-18T01:03:23.584Z,4.00
2019-05-18T01:06:39.470Z,3.73
2019-05-18T01:09:55.495Z,3.40
2019-05-18T01:13:11.312Z,3.40
2019-05-18T01:16:31.825Z,3.47
2019-05-18T01:19:47.357Z,3.60
2019-05-18T01:23:03.274Z,3.60
2019-05-18T01:26:19.256Z,3.80
2019-05-18T01:29:35.075Z,3.27
2019-05-18T01:32:51.068Z,3.30
2019-05-18T01:36:04.720Z,3.70
2019-05-18T01:39:27.393Z,3.40
2019-05-18T01:42:42.724Z,3.83
2019-05-18T01:49:22.980Z,3.30
2019-05-18T01:52:38.590Z,3.67
2019-05-18T01:55:54.647Z,3.27
2019-05-18T01:59:10.411Z,3.00
2019-05-18T02:02:26.476Z,3.13
2019-05-18T02:05:42.708Z,3.10
2019-05-18T02:08:58.931Z,3.23
2019-05-18T02:12:17.157Z,3.20
2019-05-18T02:15:32.988Z,3.17
2019-05-18T02:18:48.760Z,3.17
2019-05-18T02:22:04.764Z,2.93
2019-05-18T02:25:20.670Z,3.27
2019-05-18T02:28:34.270Z,3.20
2019-05-18T02:31:49.644Z,2.97
2019-05-18T02:35:05.569Z,2.77
2019-05-18T02:38:20.780Z,2.93
2019-05-18T02:41:36.767Z,3.27
2019-05-18T02:55:05.875Z,2.80
2019-05-18T02:58:22.867Z,2.90
2019-05-18T03:01:38.165Z,2.93
2019-05-18T03:04:54.007Z,2.90
2019-05-18T03:11:40.483Z,3.10
2019-05-18T03:18:13.428Z,2.90
2019-05-18T03:21:29.512Z,2.57
2019-05-18T03:24:45.048Z,2.70
2019-05-18T03:28:00.780Z,2.37
2019-05-18T03:31:16.750Z,2.57
2019-05-18T03:34:32.733Z,3.10
2019-05-18T03:37:48.747Z,2.73
2019-05-18T03:41:06.944Z,2.70
2019-05-18T03:44:22.622Z,3.03
2019-05-18T03:47:38.147Z,2.80
2019-05-18T03:50:53.999Z,2.67
2019-05-18T03:54:07.637Z,2.73
2019-05-18T03:57:23.303Z,2.63
2019-05-18T04:00:39.015Z,2.53
2019-05-18T04:03:55.036Z,2.30
2019-05-18T04:07:10.917Z,2.77
2019-05-18T04:10:26.480Z,2.60
2019-05-18T04:13:42.199Z,2.30
2019-05-18T04:16:58.217Z,2.80
2019-05-18T04:20:01.516Z,2.50
2019-05-18T04:23:24.202Z,2.47
2019-05-18T04:26:46.883Z,2.80
2019-05-18T04:30:09.561Z,2.80
2019-05-18T04:33:25.163Z,2.57
2019-05-18T04:36:40.915Z,2.50
2019-05-18T04:39:56.716Z,2.30
2019-05-18T04:46:36.996Z,2.40
2019-05-18T04:50:04.552Z,2.40
2019-05-18T04:59:58.736Z,2.60
2019-05-18T05:03:13.966Z,2.50
2019-05-18T05:06:29.630Z,2.50
2019-05-18T05:09:45.719Z,2.33
2019-05-18T05:16:26.339Z,2.00
2019-05-18T05:19:42.232Z,2.50
2019-05-18T05:22:58.051Z,2.60
2019-05-18T05:26:14.129Z,2.20
2019-05-18T05:29:30.388Z,2.10
2019-05-18T05:32:46.159Z,2.40
2019-05-18T05:36:02.229Z,2.40
2019-05-18T05:39:17.949Z,2.20
2019-05-18T05:42:34.098Z,2.40
2019-05-18T05:45:49.667Z,2.40
2019-05-18T05:49:05.641Z,2.23
2019-05-18T05:52:21.480Z,2.27
2019-05-18T05:55:37.231Z,2.20
2019-05-18T05:58:53.026Z,2.30
2019-05-18T06:02:08.603Z,2.30
2019-05-18T06:05:24.304Z,2.40
2019-05-18T06:08:39.668Z,2.20
2019-05-18T06:11:55.209Z,2.13
2019-05-18T06:15:10.987Z,2.50
2019-05-18T06:18:26.782Z,2.20
2019-05-18T06:21:42.830Z,2.40
2019-05-18T06:24:58.030Z,2.20
2019-05-18T06:28:13.942Z,2.07
2019-05-18T06:31:29.160Z,2.57
2019-05-18T06:34:45.128Z,2.20
2019-05-18T06:42:10.773Z,2.07
2019-05-18T08:05:38.394Z,3.90
2019-05-18T08:26:07.962Z,3.90
2019-05-18T09:48:43.985Z,2.40
2019-05-18T10:23:25.881Z,2.63
2019-05-18T10:26:46.096Z,2.63
2019-05-18T10:44:01.032Z,2.77
2019-05-18T11:01:20.717Z,2.63
2019-05-18T11:04:36.860Z,2.53
2019-05-18T11:07:52.504Z,2.83
2019-05-18T11:14:44.684Z,2.47
2019-05-18T11:17:59.979Z,2.60
2019-05-18T11:21:15.302Z,2.53
2019-05-18T11:24:18.599Z,2.73
2019-05-18T11:27:41.277Z,2.47
2019-05-18T11:31:06.986Z,2.70
2019-05-18T11:37:47.238Z,2.53
2019-05-18T11:41:02.855Z,2.43
2019-05-18T11:47:42.745Z,2.07
2019-05-18T11:50:58.750Z,2.70
2019-05-18T11:54:13.966Z,2.30
2019-05-18T11:57:30.232Z,2.43
2019-05-18T12:00:45.859Z,2.67
2019-05-18T12:04:01.511Z,2.80
2019-05-18T12:07:17.530Z,2.40
2019-05-18T12:10:33.357Z,2.50
2019-05-18T12:13:49.396Z,2.40
2019-05-18T12:17:04.691Z,2.37
2019-05-18T12:20:20.906Z,2.60
2019-05-18T12:23:37.086Z,2.63
2019-05-18T12:26:53.132Z,2.57
2019-05-18T12:30:08.367Z,2.57
2019-05-18T12:33:24.515Z,2.20
2019-05-18T12:36:39.810Z,2.90
2019-05-18T12:39:55.811Z,2.27
2019-05-18T12:43:11.462Z,2.60
2019-05-18T12:46:27.160Z,2.20
2019-05-18T12:49:43.260Z,2.30
2019-05-18T12:56:23.033Z,2.30
2019-05-18T12:59:38.281Z,2.70
2019-05-18T13:02:53.550Z,2.60
2019-05-18T13:06:10.683Z,2.60
2019-05-18T13:09:26.332Z,2.73
2019-05-18T13:12:42.156Z,2.67
2019-05-18T13:15:58.222Z,2.27
2019-05-18T13:19:14.115Z,2.57
2019-05-18T13:22:29.976Z,2.53
2019-05-18T13:25:46.035Z,2.60
2019-05-18T13:29:01.645Z,2.60
2019-05-18T13:32:17.890Z,2.53
2019-05-18T13:35:33.951Z,2.77
2019-05-18T13:38:49.923Z,2.80
2019-05-18T13:42:05.688Z,3.20
2019-05-18T13:45:24.577Z,2.83
2019-05-18T13:52:04.903Z,3.13
2019-05-18T13:55:20.104Z,3.13
2019-05-18T13:58:35.416Z,2.80
2019-05-18T14:01:54.552Z,3.17
2019-05-18T14:08:32.166Z,3.07
2019-05-18T14:11:49.532Z,3.50
2019-05-18T14:15:27.218Z,3.37
2019-05-18T14:18:32.871Z,3.37
2019-05-18T14:21:48.942Z,3.20
2019-05-18T14:25:18.837Z,3.70
2019-05-18T14:28:25.285Z,3.23
2019-05-18T14:35:05.584Z,3.07
2019-05-18T14:38:21.506Z,3.07
2019-05-18T14:41:42.354Z,3.20
2019-05-18T14:44:55.075Z,3.43
2019-05-18T14:48:11.177Z,3.60
2019-05-18T14:51:14.448Z,4.03
2019-05-18T14:54:37.124Z,3.70
2019-05-18T14:57:59.833Z,3.50
2019-05-18T15:01:03.222Z,3.40
2019-05-18T15:04:25.899Z,3.73
2019-05-18T15:07:51.601Z,3.80
2019-05-18T15:11:07.455Z,3.90
2019-05-18T15:17:47.899Z,3.50
2019-05-18T15:21:06.187Z,3.43
2019-05-18T15:24:21.027Z,3.93
2019-05-18T15:27:39.148Z,3.70
2019-05-18T15:34:26.711Z,3.93
2019-05-18T15:37:43.670Z,3.80
2019-05-18T15:40:59.297Z,3.70
2019-05-18T15:44:15.423Z,4.30
2019-05-18T15:47:31.524Z,4.07
2019-05-18T15:50:34.874Z,4.37
2019-05-18T15:57:21.336Z,3.97
2019-05-18T16:00:37.296Z,4.10
2019-05-18T16:10:34.116Z,4.30
2019-05-18T16:17:07.340Z,3.67
2019-05-18T16:20:23.239Z,4.10
2019-05-18T16:23:38.584Z,4.10
2019-05-18T16:26:53.789Z,4.73
2019-05-18T16:30:09.035Z,4.67
2019-05-18T16:33:26.081Z,4.43
2019-05-18T16:36:41.700Z,4.30
2019-05-18T16:39:57.104Z,4.43
2019-05-18T16:43:17.157Z,4.57
2019-05-18T16:46:29.885Z,4.77
2019-05-18T16:49:45.716Z,4.93
2019-05-18T16:53:02.072Z,4.70
2019-05-18T16:59:42.330Z,4.50
2019-05-18T17:02:58.451Z,4.63
2019-05-18T17:06:16.545Z,5.10
2019-05-18T17:09:32.561Z,4.83
2019-05-18T17:12:48.011Z,5.57
2019-05-18T17:16:05.978Z,4.93
2019-05-18T17:19:23.222Z,5.33
2019-05-18T17:22:38.280Z,5.00
2019-05-18T17:25:54.136Z,4.90
2019-05-18T17:29:09.378Z,5.13
2019-05-18T17:32:25.473Z,4.77
2019-05-18T17:35:40.715Z,5.13
2019-05-18T17:38:56.513Z,4.63
2019-05-18T17:42:11.866Z,5.30
2019-05-18T17:45:27.796Z,4.97
2019-05-18T17:48:43.747Z,5.13
2019-05-18T17:55:23.402Z,4.83
2019-05-18T17:58:39.483Z,5.27
2019-05-18T18:01:55.362Z,4.87
2019-05-18T18:05:10.555Z,5.10
2019-05-18T18:11:54.186Z,5.20
2019-05-18T18:15:09.474Z,5.57
2019-05-18T18:18:24.759Z,5.27
2019-05-18T18:21:40.584Z,5.43
2019-05-18T18:24:56.486Z,4.77
2019-05-18T18:28:12.371Z,5.03
2019-05-18T18:31:28.471Z,4.37
2019-05-18T18:34:44.268Z,6.00
2019-05-18T18:37:59.627Z,5.47
2019-05-18T18:41:14.931Z,5.37
2019-05-18T18:44:30.902Z,5.40
2019-05-18T18:51:10.967Z,5.20
2019-05-18T18:54:26.926Z,5.57
2019-05-18T18:57:43.011Z,5.17
2019-05-18T19:00:58.370Z,5.33
2019-05-18T19:04:14.328Z,5.37
2019-05-18T19:10:56.152Z,5.10
2019-05-18T19:14:12.055Z,4.87
2019-05-18T19:17:15.311Z,5.03
2019-05-18T19:20:57.394Z,4.50
2019-05-18T19:24:13.353Z,4.87
2019-05-18T19:27:28.582Z,4.80
2019-05-18T19:30:44.524Z,5.07
2019-05-18T19:34:00.527Z,4.80
2019-05-18T19:37:16.461Z,4.83
2019-05-18T19:40:31.949Z,4.77
2019-05-18T19:47:14.194Z,4.60
2019-05-18T19:50:36.867Z,4.77
2019-05-18T19:57:16.640Z,4.07
2019-05-18T20:00:32.577Z,4.53
2019-05-18T20:03:48.615Z,4.47
2019-05-18T20:07:03.922Z,4.27
2019-05-18T20:10:19.633Z,4.33
2019-05-18T20:13:35.522Z,4.10
2019-05-18T20:16:49.261Z,4.27
2019-05-18T20:20:04.635Z,4.30
2019-05-18T20:23:20.664Z,4.07
2019-05-18T20:26:36.589Z,4.47
2019-05-18T20:29:53.310Z,4.67
2019-05-18T20:33:08.976Z,4.20
2019-05-18T20:43:05.988Z,4.07
2019-05-18T20:53:03.127Z,4.20
2019-05-18T20:56:18.978Z,4.10
2019-05-18T20:59:34.809Z,3.70
2019-05-18T21:02:50.837Z,3.93
2019-05-18T21:06:06.682Z,4.30
2019-05-18T21:09:21.963Z,4.13
2019-05-18T21:12:38.106Z,3.87
2019-05-18T21:15:53.513Z,3.90
2019-05-18T21:19:09.434Z,4.00
2019-05-18T21:22:25.278Z,3.87
2019-05-18T21:25:41.379Z,3.67
2019-05-18T21:29:00.754Z,3.93
2019-05-18T21:32:14.408Z,4.17
2019-05-18T21:35:30.415Z,3.70
2019-05-18T21:38:46.576Z,3.50
2019-05-18T21:42:00.233Z,3.70
2019-05-18T21:45:17.704Z,3.70
2019-05-18T21:48:32.971Z,3.43
2019-05-18T21:55:12.113Z,3.93
2019-05-18T21:58:29.157Z,3.70
2019-05-18T22:01:44.355Z,3.83
2019-05-18T22:05:00.411Z,3.57
2019-05-18T22:08:15.736Z,3.27
2019-05-18T22:11:31.774Z,3.63
2019-05-18T22:14:46.921Z,3.40
2019-05-18T22:18:03.004Z,3.50
2019-05-18T22:21:18.208Z,3.47
2019-05-18T22:24:34.315Z,3.30
2019-05-18T22:27:50.135Z,3.30
2019-05-18T22:31:05.612Z,3.67
2019-05-18T22:34:21.396Z,3.90
2019-05-18T22:37:55.811Z,3.63
2019-05-18T22:40:59.478Z,3.47
2019-05-18T22:47:32.001Z,3.27
2019-05-18T22:50:48.172Z,3.40
2019-05-18T22:53:51.772Z,3.37
2019-05-18T22:57:14.456Z,3.60
2019-05-18T23:00:37.150Z,3.43
2019-05-18T23:03:52.758Z,3.13
2019-05-18T23:07:08.836Z,3.57
2019-05-18T23:10:24.933Z,3.77
2019-05-18T23:13:40.834Z,3.53
2019-05-18T23:16:56.097Z,3.37
2019-05-18T23:20:11.971Z,3.23
2019-05-18T23:23:27.138Z,3.70
2019-05-18T23:26:43.203Z,3.57
2019-05-18T23:29:56.804Z,3.17
2019-05-18T23:33:12.848Z,3.70
2019-05-18T23:39:56.885Z,3.30
2019-05-18T23:43:12.887Z,3.20
2019-05-18T23:46:28.979Z,3.47
2019-05-18T23:49:45.024Z,3.40
2019-05-18T23:53:01.114Z,3.80
2019-05-18T23:56:16.819Z,3.63
2019-05-18T23:59:32.040Z,3.50
